sensor_id;sensor_type;location;lat;lon;timestamp;pressure;altitude;pressure_sealevel;temperature;humidity
38780;BME280;29273;49.962;9.768;2023-11-21T00:01:35;99133.69;;;12.15;61.83
38780;BME280;29273;49.962;9.768;2023-11-21T00:04:01;99134.53;;;12.16;61.82
38780;BME280;29273;49.962;9.768;2023-11-21T00:06:27;99131.06;;;12.15;61.73
38780;BME280;29273;49.962;9.768;2023-11-21T00:08:52;99136.13;;;12.17;61.82
38780;BME280;29273;49.962;9.768;2023-11-21T00:11:18;99133.47;;;12.17;61.94
38780;BME280;29273;49.962;9.768;2023-11-21T00:13:43;99136.97;;;12.17;62.10
38780;BME280;29273;49.962;9.768;2023-11-21T00:16:09;99134.31;;;12.17;62.10
38780;BME280;29273;49.962;9.768;2023-11-21T00:18:34;99135.34;;;12.16;62.02
38780;BME280;29273;49.962;9.768;2023-11-21T00:21:01;99137.75;;;12.18;62.20
38780;BME280;29273;49.962;9.768;2023-11-21T00:23:26;99135.09;;;12.18;62.08
38780;BME280;29273;49.962;9.768;2023-11-21T00:25:52;99134.53;;;12.16;62.17
38780;BME280;29273;49.962;9.768;2023-11-21T00:28:17;99141.44;;;12.17;62.02
38780;BME280;29273;49.962;9.768;2023-11-21T00:30:43;99137.19;;;12.16;62.12
38780;BME280;29273;49.962;9.768;2023-11-21T00:33:08;99137.41;;;12.14;61.91
38780;BME280;29273;49.962;9.768;2023-11-21T00:35:34;99133.69;;;12.15;62.34
38780;BME280;29273;49.962;9.768;2023-11-21T00:37:59;99138.00;;;12.16;61.96
38780;BME280;29273;49.962;9.768;2023-11-21T00:40:25;99144.31;;;12.15;62.40
38780;BME280;29273;49.962;9.768;2023-11-21T00:42:50;99159.22;;;12.16;62.39
38780;BME280;29273;49.962;9.768;2023-11-21T00:45:16;99152.06;;;12.17;62.32
38780;BME280;29273;49.962;9.768;2023-11-21T00:47:41;99152.06;;;12.17;62.16
38780;BME280;29273;49.962;9.768;2023-11-21T00:50:08;99152.63;;;12.19;62.39
38780;BME280;29273;49.962;9.768;2023-11-21T00:52:34;99145.72;;;12.18;62.31
38780;BME280;29273;49.962;9.768;2023-11-21T00:55:01;99155.06;;;12.20;62.31
38780;BME280;29273;49.962;9.768;2023-11-21T00:57:28;99148.94;;;12.20;62.39
38780;BME280;29273;49.962;9.768;2023-11-21T00:59:54;99150.59;;;12.21;62.55
38780;BME280;29273;49.962;9.768;2023-11-21T01:02:20;99147.94;;;12.21;62.30
38780;BME280;29273;49.962;9.768;2023-11-21T01:04:46;99143.41;;;12.21;62.32
38780;BME280;29273;49.962;9.768;2023-11-21T01:07:13;99149.53;;;12.22;62.29
38780;BME280;29273;49.962;9.768;2023-11-21T01:09:39;99151.59;;;12.20;62.46
38780;BME280;29273;49.962;9.768;2023-11-21T01:12:04;99149.75;;;12.20;62.59
38780;BME280;29273;49.962;9.768;2023-11-21T01:14:30;99144.44;;;12.20;62.46
38780;BME280;29273;49.962;9.768;2023-11-21T01:16:57;99154.84;;;12.22;62.20
38780;BME280;29273;49.962;9.768;2023-11-21T01:19:24;99153.25;;;12.21;62.12
38780;BME280;29273;49.962;9.768;2023-11-21T01:21:49;99148.94;;;12.20;62.30
38780;BME280;29273;49.962;9.768;2023-11-21T01:24:15;99148.16;;;12.19;62.45
38780;BME280;29273;49.962;9.768;2023-11-21T01:26:41;99147.31;;;12.19;62.80
38780;BME280;29273;49.962;9.768;2023-11-21T01:29:07;99145.72;;;12.18;62.63
38780;BME280;29273;49.962;9.768;2023-11-21T01:31:32;99151.03;;;12.18;62.98
38780;BME280;29273;49.962;9.768;2023-11-21T01:33:58;99148.16;;;12.19;62.71
38780;BME280;29273;49.962;9.768;2023-11-21T01:36:30;99150.72;;;12.26;62.36
38780;BME280;29273;49.962;9.768;2023-11-21T01:38:57;99158.78;;;12.19;62.89
38780;BME280;29273;49.962;9.768;2023-11-21T01:41:26;99147.94;;;12.21;62.61
38780;BME280;29273;49.962;9.768;2023-11-21T01:43:52;99145.72;;;12.18;62.89
38780;BME280;29273;49.962;9.768;2023-11-21T01:46:19;99143.66;;;12.20;62.76
38780;BME280;29273;49.962;9.768;2023-11-21T01:48:46;99145.72;;;12.18;62.77
38780;BME280;29273;49.962;9.768;2023-11-21T01:51:15;99151.84;;;12.18;62.98
38780;BME280;29273;49.962;9.768;2023-11-21T01:53:40;99153.69;;;12.18;63.14
38780;BME280;29273;49.962;9.768;2023-11-21T01:56:07;99145.72;;;12.18;62.80
38780;BME280;29273;49.962;9.768;2023-11-21T01:58:33;99145.94;;;12.16;62.68
38780;BME280;29273;49.962;9.768;2023-11-21T02:00:59;99152.50;;;12.14;62.96
38780;BME280;29273;49.962;9.768;2023-11-21T02:03:24;99148.25;;;12.13;63.03
38780;BME280;29273;49.962;9.768;2023-11-21T02:05:52;99156.00;;;12.14;63.04
38780;BME280;29273;49.962;9.768;2023-11-21T02:08:19;99154.59;;;12.12;63.10
38780;BME280;29273;49.962;9.768;2023-11-21T02:10:45;99152.16;;;12.10;63.13
38780;BME280;29273;49.962;9.768;2023-11-21T02:13:11;99151.38;;;12.10;62.99
38780;BME280;29273;49.962;9.768;2023-11-21T02:15:37;99152.38;;;12.09;63.15
38780;BME280;29273;49.962;9.768;2023-11-21T02:18:04;99160.13;;;12.10;63.48
38780;BME280;29273;49.962;9.768;2023-11-21T02:20:31;99154.00;;;12.10;63.26
38780;BME280;29273;49.962;9.768;2023-11-21T02:23:00;99152.16;;;12.10;63.04
38780;BME280;29273;49.962;9.768;2023-11-21T02:25:31;99158.31;;;12.11;63.15
38780;BME280;29273;49.962;9.768;2023-11-21T02:27:58;99161.97;;;12.10;63.14
38780;BME280;29273;49.962;9.768;2023-11-21T02:30:25;99161.75;;;12.11;63.19
38780;BME280;29273;49.962;9.768;2023-11-21T02:32:52;99162.56;;;12.12;63.12
38780;BME280;29273;49.962;9.768;2023-11-21T02:35:22;99158.88;;;12.13;63.22
38780;BME280;29273;49.962;9.768;2023-11-21T02:37:48;99158.88;;;12.13;62.86
38780;BME280;29273;49.962;9.768;2023-11-21T02:40:14;99162.31;;;12.13;62.87
38780;BME280;29273;49.962;9.768;2023-11-21T02:42:50;99158.53;;;12.21;62.64
38780;BME280;29273;49.962;9.768;2023-11-21T02:45:20;99160.84;;;12.17;63.06
38780;BME280;29273;49.962;9.768;2023-11-21T02:47:50;99153.56;;;12.13;62.88
38780;BME280;29273;49.962;9.768;2023-11-21T02:50:15;99156.56;;;12.16;63.00
38780;BME280;29273;49.962;9.768;2023-11-21T02:52:41;99157.81;;;12.14;62.95
38780;BME280;29273;49.962;9.768;2023-11-21T02:55:07;99156.56;;;12.16;62.86
38780;BME280;29273;49.962;9.768;2023-11-21T02:57:33;99156.56;;;12.16;62.66
38780;BME280;29273;49.962;9.768;2023-11-21T02:59:59;99160.03;;;12.17;62.63
38780;BME280;29273;49.962;9.768;2023-11-21T03:02:25;99155.78;;;12.16;62.60
38780;BME280;29273;49.962;9.768;2023-11-21T03:04:51;99156.00;;;12.14;62.73
38780;BME280;29273;49.962;9.768;2023-11-21T03:07:18;99159.69;;;12.13;62.80
38780;BME280;29273;49.962;9.768;2023-11-21T03:09:47;99157.03;;;12.13;62.63
38780;BME280;29273;49.962;9.768;2023-11-21T03:12:12;99151.13;;;12.11;62.61
38780;BME280;29273;49.962;9.768;2023-11-21T03:14:39;99157.03;;;12.13;62.66
38780;BME280;29273;49.962;9.768;2023-11-21T03:17:05;99159.91;;;12.12;62.78
38780;BME280;29273;49.962;9.768;2023-11-21T03:19:32;99159.69;;;12.13;62.80
38780;BME280;29273;49.962;9.768;2023-11-21T03:21:57;99157.47;;;12.10;62.80
38780;BME280;29273;49.962;9.768;2023-11-21T03:24:23;99161.19;;;12.09;62.53
38780;BME280;29273;49.962;9.768;2023-11-21T03:26:48;99157.69;;;12.09;62.55
38780;BME280;29273;49.962;9.768;2023-11-21T03:29:14;99164.84;;;12.08;62.68
38780;BME280;29273;49.962;9.768;2023-11-21T03:31:40;99162.44;;;12.07;62.82
38780;BME280;29273;49.962;9.768;2023-11-21T03:34:06;99168.53;;;12.07;62.97
38780;BME280;29273;49.962;9.768;2023-11-21T03:36:32;99156.31;;;12.06;62.80
38780;BME280;29273;49.962;9.768;2023-11-21T03:38:58;99165.88;;;12.07;62.86
38780;BME280;29273;49.962;9.768;2023-11-21T03:41:23;99157.91;;;12.07;62.83
38780;BME280;29273;49.962;9.768;2023-11-21T03:43:49;99161.41;;;12.08;62.78
38780;BME280;29273;49.962;9.768;2023-11-21T03:46:14;99161.19;;;12.09;63.20
38780;BME280;29273;49.962;9.768;2023-11-21T03:48:40;99159.56;;;12.08;62.90
38780;BME280;29273;49.962;9.768;2023-11-21T03:51:05;99158.53;;;12.09;62.58
38780;BME280;29273;49.962;9.768;2023-11-21T03:53:33;99168.09;;;12.10;62.66
38780;BME280;29273;49.962;9.768;2023-11-21T03:56:02;99159.69;;;12.13;62.55
38780;BME280;29273;49.962;9.768;2023-11-21T03:58:28;99162.78;;;12.10;62.84
38780;BME280;29273;49.962;9.768;2023-11-21T04:00:54;99164.63;;;12.10;62.46
38780;BME280;29273;49.962;9.768;2023-11-21T04:03:19;99161.97;;;12.10;62.51
38780;BME280;29273;49.962;9.768;2023-11-21T04:05:45;99172.59;;;12.10;62.43
38780;BME280;29273;49.962;9.768;2023-11-21T04:08:11;99165.66;;;12.09;62.53
38780;BME280;29273;49.962;9.768;2023-11-21T04:10:36;99174.66;;;12.08;62.76
38780;BME280;29273;49.962;9.768;2023-11-21T04:13:02;99172.03;;;12.08;62.76
38780;BME280;29273;49.962;9.768;2023-11-21T04:15:27;99178.34;;;12.07;62.45
38780;BME280;29273;49.962;9.768;2023-11-21T04:17:53;99174.91;;;12.06;62.57
38780;BME280;29273;49.962;9.768;2023-11-21T04:20:18;99187.59;;;12.04;62.62
38780;BME280;29273;49.962;9.768;2023-11-21T04:22:44;99187.34;;;12.06;62.84
38780;BME280;29273;49.962;9.768;2023-11-21T04:25:10;99188.97;;;12.07;62.49
38780;BME280;29273;49.962;9.768;2023-11-21T04:27:38;99195.31;;;12.06;62.98
38780;BME280;29273;49.962;9.768;2023-11-21T04:30:04;99194.50;;;12.05;62.81
38780;BME280;29273;49.962;9.768;2023-11-21T04:32:30;99196.34;;;12.05;62.93
38780;BME280;29273;49.962;9.768;2023-11-21T04:34:56;99200.59;;;12.06;63.03
38780;BME280;29273;49.962;9.768;2023-11-21T04:37:21;99204.31;;;12.05;62.77
38780;BME280;29273;49.962;9.768;2023-11-21T04:39:46;99205.13;;;12.05;63.04
38780;BME280;29273;49.962;9.768;2023-11-21T04:42:12;99202.25;;;12.07;63.08
38780;BME280;29273;49.962;9.768;2023-11-21T04:44:37;99214.72;;;12.06;62.88
38780;BME280;29273;49.962;9.768;2023-11-21T04:47:06;99219.78;;;12.08;62.76
38780;BME280;29273;49.962;9.768;2023-11-21T04:49:33;99212.84;;;12.07;62.77
38780;BME280;29273;49.962;9.768;2023-11-21T04:51:58;99207.53;;;12.07;63.12
38780;BME280;29273;49.962;9.768;2023-11-21T04:54:24;99213.06;;;12.05;63.04
38780;BME280;29273;49.962;9.768;2023-11-21T04:56:49;99208.56;;;12.06;63.23
38780;BME280;29273;49.962;9.768;2023-11-21T04:59:15;99215.50;;;12.07;63.08
38780;BME280;29273;49.962;9.768;2023-11-21T05:01:41;99222.66;;;12.06;63.22
38780;BME280;29273;49.962;9.768;2023-11-21T05:04:06;99226.13;;;12.07;63.20
38780;BME280;29273;49.962;9.768;2023-11-21T05:06:32;99226.13;;;12.07;63.22
38780;BME280;29273;49.962;9.768;2023-11-21T05:08:58;99226.13;;;12.07;63.30
38780;BME280;29273;49.962;9.768;2023-11-21T05:11:25;99226.47;;;12.10;63.17
38780;BME280;29273;49.962;9.768;2023-11-21T05:13:51;99228.56;;;12.08;63.46
38780;BME280;29273;49.962;9.768;2023-11-21T05:16:16;99224.88;;;12.09;63.46
38780;BME280;29273;49.962;9.768;2023-11-21T05:18:42;99223.81;;;12.10;63.46
38780;BME280;29273;49.962;9.768;2023-11-21T05:21:07;99228.09;;;12.11;63.18
38780;BME280;29273;49.962;9.768;2023-11-21T05:23:33;99231.56;;;12.12;63.17
38780;BME280;29273;49.962;9.768;2023-11-21T05:25:59;99231.34;;;12.13;63.33
38780;BME280;29273;49.962;9.768;2023-11-21T05:28:24;99241.16;;;12.13;63.25
38780;BME280;29273;49.962;9.768;2023-11-21T05:30:50;99242.75;;;12.14;63.33
38780;BME280;29273;49.962;9.768;2023-11-21T05:33:16;99242.75;;;12.14;63.27
38780;BME280;29273;49.962;9.768;2023-11-21T05:35:41;99239.53;;;12.12;63.15
38780;BME280;29273;49.962;9.768;2023-11-21T05:38:07;99246.69;;;12.11;63.19
38780;BME280;29273;49.962;9.768;2023-11-21T05:40:32;99252.78;;;12.12;63.19
38780;BME280;29273;49.962;9.768;2023-11-21T05:42:58;99250.94;;;12.12;63.24
38780;BME280;29273;49.962;9.768;2023-11-21T05:45:24;99255.44;;;12.12;63.21
38780;BME280;29273;49.962;9.768;2023-11-21T05:47:49;99256.25;;;12.12;63.42
38780;BME280;29273;49.962;9.768;2023-11-21T05:50:16;99257.88;;;12.13;63.30
38780;BME280;29273;49.962;9.768;2023-11-21T05:52:43;99262.97;;;12.15;63.25
38780;BME280;29273;49.962;9.768;2023-11-21T05:55:09;99260.53;;;12.13;63.31
38780;BME280;29273;49.962;9.768;2023-11-21T05:57:39;99267.47;;;12.14;63.51
38780;BME280;29273;49.962;9.768;2023-11-21T06:00:10;99269.22;;;12.20;63.03
38780;BME280;29273;49.962;9.768;2023-11-21T06:02:56;99270.94;;;12.15;63.51
38780;BME280;29273;49.962;9.768;2023-11-21T06:05:24;99275.00;;;12.17;63.28
38780;BME280;29273;49.962;9.768;2023-11-21T06:07:51;99277.88;;;12.16;63.22
38780;BME280;29273;49.962;9.768;2023-11-21T06:10:20;99285.63;;;12.17;62.95
38780;BME280;29273;49.962;9.768;2023-11-21T06:12:45;99295.84;;;12.14;63.45
38780;BME280;29273;49.962;9.768;2023-11-21T06:15:11;99289.72;;;12.13;63.69
38780;BME280;29273;49.962;9.768;2023-11-21T06:17:39;99295.84;;;12.14;63.39
38780;BME280;29273;49.962;9.768;2023-11-21T06:20:06;99296.69;;;12.14;63.34
38780;BME280;29273;49.962;9.768;2023-11-21T06:22:38;99310.09;;;12.19;63.32
38780;BME280;29273;49.962;9.768;2023-11-21T06:25:05;99303.00;;;12.13;63.33
38780;BME280;29273;49.962;9.768;2023-11-21T06:27:32;99309.34;;;12.12;63.40
38780;BME280;29273;49.962;9.768;2023-11-21T06:29:58;99305.88;;;12.12;63.53
38780;BME280;29273;49.962;9.768;2023-11-21T06:32:24;99313.84;;;12.12;63.60
38780;BME280;29273;49.962;9.768;2023-11-21T06:34:49;99315.69;;;12.11;63.63
38780;BME280;29273;49.962;9.768;2023-11-21T06:37:15;99312.81;;;12.13;63.25
38780;BME280;29273;49.962;9.768;2023-11-21T06:39:42;99311.41;;;12.10;63.50
38780;BME280;29273;49.962;9.768;2023-11-21T06:42:07;99314.28;;;12.09;63.70
38780;BME280;29273;49.962;9.768;2023-11-21T06:44:32;99311.63;;;12.09;63.83
38780;BME280;29273;49.962;9.768;2023-11-21T06:46:59;99320.44;;;12.09;63.55
38780;BME280;29273;49.962;9.768;2023-11-21T06:49:24;99321.22;;;12.10;63.58
38780;BME280;29273;49.962;9.768;2023-11-21T06:51:50;99321.22;;;12.10;63.68
38780;BME280;29273;49.962;9.768;2023-11-21T06:54:15;99338.19;;;12.09;63.54
38780;BME280;29273;49.962;9.768;2023-11-21T06:56:40;99339.22;;;12.08;63.70
38780;BME280;29273;49.962;9.768;2023-11-21T06:59:06;99342.69;;;12.08;63.49
38780;BME280;29273;49.962;9.768;2023-11-21T07:01:31;99343.72;;;12.07;63.45
38780;BME280;29273;49.962;9.768;2023-11-21T07:04:04;99342.47;;;11.91;63.45
38780;BME280;29273;49.962;9.768;2023-11-21T07:06:30;99339.66;;;12.05;63.67
38780;BME280;29273;49.962;9.768;2023-11-21T07:08:55;99347.63;;;12.05;63.62
38780;BME280;29273;49.962;9.768;2023-11-21T07:11:21;99353.75;;;12.05;64.03
38780;BME280;29273;49.962;9.768;2023-11-21T07:13:46;99356.41;;;12.05;63.99
38780;BME280;29273;49.962;9.768;2023-11-21T07:16:12;99364.13;;;12.07;63.70
38780;BME280;29273;49.962;9.768;2023-11-21T07:18:37;99369.44;;;12.07;63.90
38780;BME280;29273;49.962;9.768;2023-11-21T07:21:03;99371.06;;;12.08;63.99
38780;BME280;29273;49.962;9.768;2023-11-21T07:23:29;99370.84;;;12.09;63.86
38780;BME280;29273;49.962;9.768;2023-11-21T07:25:54;99384.13;;;12.09;64.17
38780;BME280;29273;49.962;9.768;2023-11-21T07:28:20;99384.94;;;12.10;64.24
38780;BME280;29273;49.962;9.768;2023-11-21T07:30:45;99388.38;;;12.10;64.11
38780;BME280;29273;49.962;9.768;2023-11-21T07:33:11;99389.81;;;12.13;63.88
38780;BME280;29273;49.962;9.768;2023-11-21T07:35:36;99387.94;;;12.13;63.96
38780;BME280;29273;49.962;9.768;2023-11-21T07:38:02;99389.59;;;12.14;64.30
38780;BME280;29273;49.962;9.768;2023-11-21T07:40:27;99394.44;;;12.17;63.96
38780;BME280;29273;49.962;9.768;2023-11-21T07:42:53;99389.38;;;12.16;63.56
38780;BME280;29273;49.962;9.768;2023-11-21T07:45:18;99400.78;;;12.16;63.50
38780;BME280;29273;49.962;9.768;2023-11-21T07:47:43;99404.25;;;12.17;63.39
38780;BME280;29273;49.962;9.768;2023-11-21T07:50:09;99407.09;;;12.15;63.22
38780;BME280;29273;49.962;9.768;2023-11-21T07:52:35;99405.50;;;12.14;63.23
38780;BME280;29273;49.962;9.768;2023-11-21T07:55:01;99411.41;;;12.16;63.06
38780;BME280;29273;49.962;9.768;2023-11-21T07:57:27;99409.97;;;12.14;63.00
38780;BME280;29273;49.962;9.768;2023-11-21T07:59:52;99414.28;;;12.15;63.18
38780;BME280;29273;49.962;9.768;2023-11-21T08:02:19;99423.25;;;12.14;63.14
38780;BME280;29273;49.962;9.768;2023-11-21T08:04:44;99428.56;;;12.14;63.23
38780;BME280;29273;49.962;9.768;2023-11-21T08:07:10;99434.72;;;12.14;63.21
38780;BME280;29273;49.962;9.768;2023-11-21T08:09:36;99434.72;;;12.14;63.31
38780;BME280;29273;49.962;9.768;2023-11-21T08:12:01;99442.44;;;12.16;62.99
38780;BME280;29273;49.962;9.768;2023-11-21T08:14:28;99446.72;;;12.17;63.16
38780;BME280;29273;49.962;9.768;2023-11-21T08:16:53;99449.38;;;12.17;63.33
38780;BME280;29273;49.962;9.768;2023-11-21T08:19:23;99446.50;;;12.18;63.27
38780;BME280;29273;49.962;9.768;2023-11-21T08:21:50;99445.47;;;12.19;63.09
38780;BME280;29273;49.962;9.768;2023-11-21T08:24:16;99447.06;;;12.20;63.13
38780;BME280;29273;49.962;9.768;2023-11-21T08:26:42;99450.56;;;12.21;63.31
38780;BME280;29273;49.962;9.768;2023-11-21T08:29:08;99446.06;;;12.21;63.27
38780;BME280;29273;49.962;9.768;2023-11-21T08:31:34;99451.16;;;12.23;63.19
38780;BME280;29273;49.962;9.768;2023-11-21T08:33:59;99453.38;;;12.26;62.90
38780;BME280;29273;49.962;9.768;2023-11-21T08:36:27;99450.50;;;12.28;62.95
38780;BME280;29273;49.962;9.768;2023-11-21T08:38:52;99450.50;;;12.28;63.17
38780;BME280;29273;49.962;9.768;2023-11-21T08:41:18;99450.28;;;12.29;63.22
38780;BME280;29273;49.962;9.768;2023-11-21T08:43:48;99459.97;;;12.35;63.41
38780;BME280;29273;49.962;9.768;2023-11-21T08:46:14;99452.84;;;12.36;63.23
38780;BME280;29273;49.962;9.768;2023-11-21T08:48:40;99450.56;;;12.39;63.45
38780;BME280;29273;49.962;9.768;2023-11-21T08:51:06;99446.84;;;12.40;63.65
38780;BME280;29273;49.962;9.768;2023-11-21T08:53:32;99444.59;;;12.44;63.51
38780;BME280;29273;49.962;9.768;2023-11-21T08:55:58;99445.75;;;12.48;63.21
38780;BME280;29273;49.962;9.768;2023-11-21T08:58:25;99448.97;;;12.50;63.15
38780;BME280;29273;49.962;9.768;2023-11-21T09:00:50;99451.19;;;12.53;63.40
38780;BME280;29273;49.962;9.768;2023-11-21T09:03:16;99457.94;;;12.56;62.91
38780;BME280;29273;49.962;9.768;2023-11-21T09:05:41;99461.75;;;12.60;63.46
38780;BME280;29273;49.962;9.768;2023-11-21T09:08:07;99470.28;;;12.62;62.98
38780;BME280;29273;49.962;9.768;2023-11-21T09:10:35;99471.63;;;12.71;63.08
38780;BME280;29273;49.962;9.768;2023-11-21T09:13:04;99481.44;;;12.71;62.82
38780;BME280;29273;49.962;9.768;2023-11-21T09:15:30;99473.03;;;12.74;63.29
38780;BME280;29273;49.962;9.768;2023-11-21T09:17:55;99478.94;;;12.76;62.83
38780;BME280;29273;49.962;9.768;2023-11-21T09:20:21;99487.25;;;12.80;62.76
38780;BME280;29273;49.962;9.768;2023-11-21T09:22:48;99491.31;;;12.82;62.67
38780;BME280;29273;49.962;9.768;2023-11-21T09:25:14;99494.56;;;12.84;62.72
38780;BME280;29273;49.962;9.768;2023-11-21T09:27:40;99502.09;;;12.87;62.38
38780;BME280;29273;49.962;9.768;2023-11-21T09:30:07;99497.16;;;12.91;62.12
38780;BME280;29273;49.962;9.768;2023-11-21T09:32:37;99506.28;;;12.95;62.30
38780;BME280;29273;49.962;9.768;2023-11-21T09:35:06;99500.50;;;12.98;61.63
38780;BME280;29273;49.962;9.768;2023-11-21T09:37:34;99512.41;;;12.95;61.73
38780;BME280;29273;49.962;9.768;2023-11-21T09:39:59;99513.00;;;12.98;62.04
38780;BME280;29273;49.962;9.768;2023-11-21T09:42:39;99512.09;;;13.04;61.84
38780;BME280;29273;49.962;9.768;2023-11-21T09:45:18;99510.25;;;13.04;61.98
38780;BME280;29273;49.962;9.768;2023-11-21T09:47:46;99518.47;;;13.03;61.59
38780;BME280;29273;49.962;9.768;2023-11-21T09:50:16;99512.47;;;13.07;61.58
38780;BME280;29273;49.962;9.768;2023-11-21T09:52:58;99511.19;;;13.10;61.71
38780;BME280;29273;49.962;9.768;2023-11-21T09:55:27;99518.00;;;13.06;61.67
38780;BME280;29273;49.962;9.768;2023-11-21T09:57:57;99516.97;;;13.07;61.46
38780;BME280;29273;49.962;9.768;2023-11-21T10:00:23;99525.50;;;13.09;61.51
38780;BME280;29273;49.962;9.768;2023-11-21T10:02:49;99521.03;;;13.09;61.36
38780;BME280;29273;49.962;9.768;2023-11-21T10:05:16;99525.28;;;13.10;61.22
38780;BME280;29273;49.962;9.768;2023-11-21T10:07:45;99523.59;;;13.16;61.65
38780;BME280;29273;49.962;9.768;2023-11-21T10:10:13;99530.78;;;13.16;61.66
38780;BME280;29273;49.962;9.768;2023-11-21T10:12:42;99522.78;;;13.16;61.15
38780;BME280;29273;49.962;9.768;2023-11-21T10:15:11;99525.19;;;13.17;61.21
38780;BME280;29273;49.962;9.768;2023-11-21T10:17:40;99531.00;;;13.14;61.30
38780;BME280;29273;49.962;9.768;2023-11-21T10:20:13;99522.94;;;13.21;61.49
38780;BME280;29273;49.962;9.768;2023-11-21T10:22:40;99530.53;;;13.17;61.11
38780;BME280;29273;49.962;9.768;2023-11-21T10:25:09;99526.03;;;13.18;60.63
38780;BME280;29273;49.962;9.768;2023-11-21T10:27:36;99525.81;;;13.19;60.75
38780;BME280;29273;49.962;9.768;2023-11-21T10:30:05;99528.47;;;13.19;60.51
38780;BME280;29273;49.962;9.768;2023-11-21T10:32:30;99518.63;;;13.20;60.77
38780;BME280;29273;49.962;9.768;2023-11-21T10:35:00;99526.97;;;13.23;61.08
38780;BME280;29273;49.962;9.768;2023-11-21T10:37:39;99531.38;;;13.29;61.04
38780;BME280;29273;49.962;9.768;2023-11-21T10:40:10;99527.94;;;13.29;60.66
38780;BME280;29273;49.962;9.768;2023-11-21T10:42:39;99529.75;;;13.28;60.42
38780;BME280;29273;49.962;9.768;2023-11-21T10:45:06;99539.16;;;13.31;60.52
38780;BME280;29273;49.962;9.768;2023-11-21T10:47:40;99534.44;;;13.33;60.89
38780;BME280;29273;49.962;9.768;2023-11-21T10:50:07;99534.22;;;13.35;61.11
38780;BME280;29273;49.962;9.768;2023-11-21T10:52:39;99534.13;;;13.41;61.30
38780;BME280;29273;49.962;9.768;2023-11-21T10:55:16;99542.91;;;13.42;61.14
38780;BME280;29273;49.962;9.768;2023-11-21T10:57:43;99531.09;;;13.38;60.46
38780;BME280;29273;49.962;9.768;2023-11-21T11:00:10;99542.78;;;13.37;59.97
38780;BME280;29273;49.962;9.768;2023-11-21T11:02:39;99535.00;;;13.35;59.98
38780;BME280;29273;49.962;9.768;2023-11-21T11:05:06;99532.34;;;13.35;60.25
38780;BME280;29273;49.962;9.768;2023-11-21T11:07:31;99534.84;;;13.30;59.94
38780;BME280;29273;49.962;9.768;2023-11-21T11:09:59;99540.41;;;13.28;60.37
38780;BME280;29273;49.962;9.768;2023-11-21T11:12:25;99542.69;;;13.25;59.97
38780;BME280;29273;49.962;9.768;2023-11-21T11:14:51;99537.81;;;13.22;60.04
38780;BME280;29273;49.962;9.768;2023-11-21T11:17:19;99543.16;;;13.22;60.17
38780;BME280;29273;49.962;9.768;2023-11-21T11:19:47;99537.69;;;13.17;60.20
38780;BME280;29273;49.962;9.768;2023-11-21T11:22:24;99548.31;;;13.17;60.34
38780;BME280;29273;49.962;9.768;2023-11-21T11:28:04;99548.84;;;13.07;60.69
38780;BME280;29273;49.962;9.768;2023-11-21T11:30:59;99547.91;;;13.01;60.54
38780;BME280;29273;49.962;9.768;2023-11-21T11:33:41;99545.25;;;13.01;60.57
38780;BME280;29273;49.962;9.768;2023-11-21T11:36:28;99545.47;;;13.00;60.55
38780;BME280;29273;49.962;9.768;2023-11-21T11:38:54;99545.56;;;12.93;60.90
38780;BME280;29273;49.962;9.768;2023-11-21T11:41:39;99548.81;;;12.95;60.49
38780;BME280;29273;49.962;9.768;2023-11-21T11:47:35;99543.03;;;12.98;60.41
38780;BME280;29273;49.962;9.768;2023-11-21T11:50:06;99550.88;;;12.93;60.22
38780;BME280;29273;49.962;9.768;2023-11-21T11:52:55;99542.81;;;13.00;60.52
38780;BME280;29273;49.962;9.768;2023-11-21T11:55:36;99542.69;;;12.94;60.54
38780;BME280;29273;49.962;9.768;2023-11-21T11:58:05;99546.06;;;13.02;60.41
38780;BME280;29273;49.962;9.768;2023-11-21T12:03:00;99547.25;;;13.06;60.68
38780;BME280;29273;49.962;9.768;2023-11-21T12:05:29;99545.75;;;13.10;60.68
38780;BME280;29273;49.962;9.768;2023-11-21T12:08:02;99543.59;;;13.19;60.42
38780;BME280;29273;49.962;9.768;2023-11-21T12:10:30;99554.13;;;13.25;60.47
38780;BME280;29273;49.962;9.768;2023-11-21T12:12:58;99550.16;;;13.35;60.63
38780;BME280;29273;49.962;9.768;2023-11-21T12:15:24;99548.00;;;13.43;59.63
38780;BME280;29273;49.962;9.768;2023-11-21T12:17:51;99549.31;;;13.53;59.86
38780;BME280;29273;49.962;9.768;2023-11-21T12:20:22;99546.69;;;13.64;59.80
38780;BME280;29273;49.962;9.768;2023-11-21T12:22:50;99553.16;;;13.68;59.30
38780;BME280;29273;49.962;9.768;2023-11-21T12:25:17;99543.69;;;13.73;58.87
38780;BME280;29273;49.962;9.768;2023-11-21T12:27:48;99554.56;;;13.83;59.17
38780;BME280;29273;49.962;9.768;2023-11-21T12:30:19;99550.88;;;13.84;58.36
38780;BME280;29273;49.962;9.768;2023-11-21T12:32:48;99554.25;;;13.91;59.05
38780;BME280;29273;49.962;9.768;2023-11-21T12:35:13;99551.00;;;13.89;58.39
38780;BME280;29273;49.962;9.768;2023-11-21T12:37:40;99551.94;;;13.95;58.30
38780;BME280;29273;49.962;9.768;2023-11-21T12:40:09;99552.28;;;13.98;58.03
38780;BME280;29273;49.962;9.768;2023-11-21T12:42:41;99555.06;;;14.03;58.11
38780;BME280;29273;49.962;9.768;2023-11-21T12:47:47;99551.94;;;14.06;57.48
38780;BME280;29273;49.962;9.768;2023-11-21T12:50:14;99555.28;;;14.02;56.31
38780;BME280;29273;49.962;9.768;2023-11-21T12:52:52;99562.13;;;14.10;58.24
38780;BME280;29273;49.962;9.768;2023-11-21T12:55:20;99563.38;;;14.07;56.48
38780;BME280;29273;49.962;9.768;2023-11-21T12:57:50;99560.72;;;14.07;56.43
38780;BME280;29273;49.962;9.768;2023-11-21T13:00:33;99563.53;;;14.12;58.15
38780;BME280;29273;49.962;9.768;2023-11-21T13:02:59;99560.97;;;14.05;53.85
38780;BME280;29273;49.962;9.768;2023-11-21T13:05:32;99564.78;;;14.10;54.21
38780;BME280;29273;49.962;9.768;2023-11-21T13:08:01;99576.13;;;14.05;52.61
38780;BME280;29273;49.962;9.768;2023-11-21T13:10:31;99585.16;;;14.04;53.48
38780;BME280;29273;49.962;9.768;2023-11-21T13:12:58;99581.09;;;14.01;53.02